Orbital elements of COSMOS 2251 DEB
| Launched | 15 June 1993 |
| Flight ended | – |
| Launch site | Plesetsk Missile and Space Complex, Russia |
| Owner | Commonwealth of Independent States (former USSR) |
| NORAD ID | 36441 |
| Date fetched |
Epoch osculation |
Inc. [°] |
Ecc. | RA asc node [hr] |
Arg Peri. [°] |
Mean anom [°] |
Mean motion [rev/day] |
Abs. mag |
| Date fetched |
Epoch osculation |
Inc. [°] |
Ecc. | RA asc node [hr] |
Arg Peri. [°] |
Mean anom [°] |
Mean motion [rev/day] |
Abs. mag |
| 2026 May 05 17:57 | 2026 May 03 11:29:20 | 73.8354 | 0.01036 | 3.6209 | 124.8255 | 236.2740 | 15.09452 | – |
| 2026 May 04 17:57 | 2026 Apr 30 13:29:54 | 73.8339 | 0.01040 | 4.0269 | 131.4768 | 236.2740 | 15.09452 | – |
| 2026 May 03 17:57 | 2026 Apr 30 13:29:54 | 73.8339 | 0.01040 | 4.0269 | 131.4768 | 236.2740 | 15.09452 | – |
| 2026 May 02 17:57 | 2026 Apr 30 13:29:54 | 73.8339 | 0.01040 | 4.0269 | 131.4768 | 236.2740 | 15.09452 | – |
| 2026 May 01 17:56 | 2026 Apr 30 13:29:54 | 73.8339 | 0.01040 | 4.0269 | 131.4768 | 236.2740 | 15.09452 | – |
| 2026 Apr 30 17:56 | 2026 Apr 30 13:29:54 | 73.8339 | 0.01040 | 4.0269 | 131.4768 | 236.2740 | 15.09452 | – |
| 2026 Apr 29 17:57 | 2026 Apr 23 14:28:01 | 73.8326 | 0.01045 | 4.9957 | 147.6081 | 236.2740 | 15.09452 | – |
| 2026 Apr 28 17:56 | 2026 Apr 23 14:28:01 | 73.8326 | 0.01045 | 4.9957 | 147.6081 | 236.2740 | 15.09452 | – |
| 2026 Apr 27 17:58 | 2026 Apr 23 14:28:01 | 73.8326 | 0.01045 | 4.9957 | 147.6081 | 236.2740 | 15.09452 | – |
| 2026 Apr 26 17:58 | 2026 Apr 23 14:28:01 | 73.8326 | 0.01045 | 4.9957 | 147.6081 | 236.2740 | 15.09452 | – |
| 2026 Apr 25 17:58 | 2026 Apr 23 14:28:01 | 73.8326 | 0.01045 | 4.9957 | 147.6081 | 236.2740 | 15.09452 | – |
| 2026 Apr 24 17:59 | 2026 Apr 23 14:28:01 | 73.8326 | 0.01045 | 4.9957 | 147.6081 | 236.2740 | 15.09452 | – |
| 2026 Apr 23 17:57 | 2026 Apr 14 07:44:42 | 73.8320 | 0.01050 | 6.2873 | 169.3396 | 236.2740 | 15.09452 | – |
| 2026 Apr 22 17:57 | 2026 Apr 14 07:44:42 | 73.8320 | 0.01050 | 6.2873 | 169.3396 | 236.2740 | 15.09452 | – |
| 2026 Apr 21 17:57 | 2026 Apr 14 07:44:42 | 73.8320 | 0.01050 | 6.2873 | 169.3396 | 236.2740 | 15.09452 | – |
| 2026 Apr 20 17:57 | 2026 Apr 14 07:44:42 | 73.8320 | 0.01050 | 6.2873 | 169.3396 | 236.2740 | 15.09452 | – |
| 2026 Apr 19 17:58 | 2026 Apr 14 07:44:42 | 73.8320 | 0.01050 | 6.2873 | 169.3396 | 236.2740 | 15.09452 | – |
| 2026 Apr 18 17:56 | 2026 Apr 12 06:25:35 | 73.8319 | 0.01051 | 6.5733 | 174.0537 | 236.2740 | 15.09452 | – |
| 2026 Apr 16 17:57 | 2026 Apr 12 06:25:35 | 73.8319 | 0.01051 | 6.5733 | 174.0537 | 236.2740 | 15.09452 | – |
| 2026 Apr 14 17:57 | 2026 Apr 12 06:25:35 | 73.8319 | 0.01051 | 6.5733 | 174.0537 | 236.2740 | 15.09452 | – |
| 2026 Apr 13 17:57 | 2026 Apr 12 06:25:35 | 73.8319 | 0.01051 | 6.5733 | 174.0537 | 236.2740 | 15.09452 | – |
| 2026 Apr 12 17:57 | 2026 Apr 07 07:06:18 | 73.8304 | 0.01055 | 7.2652 | 185.3343 | 236.2740 | 15.09452 | – |
| 2026 Apr 11 17:57 | 2026 Apr 07 07:06:18 | 73.8304 | 0.01055 | 7.2652 | 185.3343 | 236.2740 | 15.09452 | – |
| 2026 Apr 10 17:58 | 2026 Apr 07 07:06:18 | 73.8304 | 0.01055 | 7.2652 | 185.3343 | 236.2740 | 15.09452 | – |
| 2026 Apr 09 18:01 | 2026 Apr 07 07:06:18 | 73.8304 | 0.01055 | 7.2652 | 185.3343 | 236.2740 | 15.09452 | – |
| 2026 Apr 08 17:57 | 2026 Apr 07 07:06:18 | 73.8304 | 0.01055 | 7.2652 | 185.3343 | 236.2740 | 15.09452 | – |